Date,TemperatureHighF,TemperatureAvgF,TemperatureLowF,DewpointHighF,DewpointAvgF,DewpointLowF,HumidityHigh,HumidityAvg,HumidityLow,PressureMaxIn,PressureMinIn,WindSpeedMaxMPH,WindSpeedAvgMPH,GustSpeedMaxMPH,PrecipitationSumIn
2013-1-1,27.2,18.8,1.9,23.5,10.7,-3.7,91,71,49,29.81,29.54,7,2,9,0.00
2013-1-2,14.0,1.5,-12.4,3.0,-7.2,-16.6,87,68,48,30.02,29.80,7,2,11,0.00
2013-1-3,18.5,7.1,-3.0,2.9,-2.5,-9.8,80,65,48,30.06,29.91,4,1,7,0.00
2013-1-4,31.6,15.1,-7.4,24.3,9.5,-11.2,88,79,71,29.90,29.65,7,2,9,0.00
2013-1-5,31.6,22.1,2.0,26.9,11.7,-1.7,88,65,42,30.25,29.65,9,2,17,0.00
2013-1-6,28.4,15.9,1.3,19.9,11.4,-2.1,89,82,69,30.22,29.89,4,0,4,0.00
2013-1-7,23.8,13.6,-2.2,18.8,7.0,-5.6,89,76,49,30.38,29.97,2,1,4,0.00
2013-1-8,37.7,11.9,-6.7,22.1,6.4,-10.4,91,80,52,30.34,30.16,4,0,4,0.00
2013-1-9,31.9,17.9,0.4,29.4,14.5,-2.8,93,86,76,30.40,29.83,5,1,6,0.00
2013-1-10,41.5,36.8,27.1,31.6,26.8,19.7,93,68,51,30.44,29.81,10,4,13,0.03
2013-1-11,36.1,25.3,14.6,23.5,17.6,11.7,89,73,49,30.51,30.23,2,0,2,0.00
2013-1-12,37.1,33.1,29.8,35.8,31.7,25.1,97,95,79,30.24,30.07,1,0,1,0.03
2013-1-13,37.5,36.0,33.7,37.0,35.2,32.9,98,97,97,30.13,29.90,4,1,5,0.02
2013-1-14,51.1,39.4,31.8,47.0,34.3,23.8,98,83,56,30.18,29.79,8,2,9,0.01
2013-1-15,37.7,30.0,23.4,25.7,21.6,16.8,90,72,51,30.29,30.16,4,0,4,0.00
2013-1-16,28.0,25.9,23.6,25.6,23.4,18.9,94,90,82,30.24,29.74,1,0,2,0.00
2013-1-17,36.4,21.9,7.5,30.3,13.1,-5.5,95,71,37,30.14,29.71,6,2,11,0.00
2013-1-18,14.3,3.6,-8.5,-4.5,-8.5,-14.5,82,58,36,30.36,30.11,4,1,7,0.00
2013-1-19,25.8,15.7,-5.6,19.5,10.2,-9.9,84,79,68,30.33,29.87,3,0,4,0.00
2013-1-20,40.7,29.2,16.3,31.9,20.7,0.5,95,73,43,29.85,29.37,9,3,12,0.17
2013-1-21,20.6,12.9,7.1,3.1,-2.9,-5.8,65,49,32,30.00,29.81,8,2,16,0.00
2013-1-22,12.2,6.3,1.3,5.5,-5.0,-12.9,82,60,42,29.97,29.81,4,1,10,0.00
2013-1-23,4.0,-3.1,-13.5,-12.7,-17.8,-21.3,68,49,33,30.04,29.96,5,2,8,0.00
2013-1-24,10.2,-2.1,-15.9,-10.1,-15.3,-21.2,78,54,34,30.06,29.87,7,2,12,0.00
2013-1-25,17.9,6.6,-5.2,-0.6,-4.8,-13.3,76,60,41,30.16,30.05,5,1,7,0.00
2013-1-26,18.3,8.7,-2.1,-1.0,-5.0,-8.7,80,55,33,30.08,29.96,5,2,10,0.00
2013-1-27,20.9,11.8,4.8,2.1,-1.2,-6.1,66,56,42,30.39,30.08,6,3,12,0.00
2013-1-28,26.5,11.4,-1.0,15.6,-0.4,-7.1,90,63,23,30.39,30.07,6,1,7,0.00
2013-1-29,36.4,21.0,3.0,25.9,14.9,0.0,91,78,54,30.19,30.06,4,0,5,0.00
2013-1-30,48.4,38.3,29.0,47.9,37.4,26.3,98,96,89,30.13,29.37,7,3,9,0.17
2013-1-31,56.2,45.5,26.6,54.5,39.1,8.9,98,80,43,29.37,28.72,21,9,22,0.49
2013-2-1,25.4,18.5,10.4,14.2,4.8,-1.6,66,55,45,30.00,29.37,7,2,14,0.00
2013-2-2,22.1,13.8,3.1,11.8,3.3,-3.3,88,65,41,30.16,30.00,7,2,9,0.00
2013-2-3,28.1,20.1,11.7,14.5,12.3,8.1,88,72,52,30.04,29.68,3,1,6,0.00
2013-2-4,26.0,17.5,9.4,12.6,4.1,-10.2,81,57,34,29.80,29.57,6,3,11,0.00
2013-2-5,19.6,10.1,2.8,5.1,-5.0,-10.0,78,52,29,30.01,29.81,4,1,6,0.00
2013-2-6,31.8,18.2,10.5,19.8,6.1,-6.4,77,60,36,30.25,29.89,8,2,13,0.00
2013-2-7,13.5,6.2,0.6,-4.9,-11.4,-17.3,73,45,25,30.58,30.25,5,2,11,0.00
2013-2-8,12.9,7.5,2.8,7.0,-0.4,-11.7,87,70,46,30.60,30.03,5,2,7,0.00
2013-2-9,15.3,11.4,7.9,10.7,7.9,5.1,89,85,71,30.10,29.81,8,6,12,0.00
2013-2-10,33.5,19.6,5.9,8.1,3.7,-0.6,80,52,27,30.33,30.10,5,2,6,0.00
2013-2-11,30.7,16.0,-3.4,29.4,12.4,-7.3,95,86,60,30.32,29.55,3,0,4,0.00
2013-2-12,42.4,32.8,25.6,36.0,28.9,24.4,96,86,70,29.70,29.49,4,1,7,0.29
2013-2-13,43.8,35.3,27.2,27.7,23.5,19.3,77,63,43,29.75,29.69,4,1,5,0.05
2013-2-14,39.9,27.9,19.6,21.8,19.1,16.1,90,71,42,29.96,29.69,4,1,5,0.00
2013-2-15,44.0,29.2,17.9,31.5,23.5,15.2,94,80,60,29.97,29.86,9,2,10,0.00
2013-2-16,32.1,28.5,22.9,29.8,25.6,12.2,95,89,60,29.93,29.78,4,1,5,0.04
2013-2-17,23.9,19.6,16.4,16.1,10.6,4.7,87,68,57,29.78,29.14,10,6,15,0.00
2013-2-18,29.4,19.6,13.1,7.3,2.1,-0.7,59,46,37,29.94,29.35,8,4,16,0.00
2013-2-19,41.2,25.8,2.3,33.1,9.2,-2.9,96,55,22,30.07,29.61,6,1,8,0.28
2013-2-20,40.8,33.1,24.9,39.7,26.8,15.8,97,78,62,29.60,29.34,7,2,10,0.51
2013-2-21,31.0,24.5,17.0,25.7,16.7,8.4,81,72,61,30.12,29.56,5,2,10,0.00
2013-2-22,35.2,28.0,19.8,23.6,20.1,16.8,90,73,54,30.37,30.14,4,1,6,0.00
2013-2-23,32.1,24.4,17.1,28.4,21.7,15.2,94,89,81,30.34,30.04,2,0,4,0.00
2013-2-24,28.9,27.6,25.1,27.6,26.1,23.4,95,94,92,30.03,29.79,1,0,2,0.00
2013-2-25,40.0,30.0,23.8,30.7,26.4,22.3,96,87,61,30.22,29.89,2,0,4,0.32
2013-2-26,45.7,33.1,23.8,29.4,26.5,22.1,95,79,49,30.33,30.22,2,0,3,0.01
2013-2-27,39.7,28.1,20.5,30.0,23.9,18.5,94,85,53,30.26,29.72,2,0,4,0.00
2013-2-28,35.6,31.9,29.0,34.5,30.7,27.5,96,95,93,29.74,29.54,2,1,4,0.01
2013-3-1,33.8,30.9,29.2,31.8,29.3,27.8,96,94,91,29.64,29.53,3,0,5,0.04
2013-3-2,38.4,33.0,29.9,32.6,30.0,26.8,96,89,77,29.61,29.56,3,1,7,0.15
2013-3-3,41.7,36.2,32.7,33.7,31.2,27.6,95,82,66,29.58,29.46,5,1,6,0.04
2013-3-4,36.0,32.4,29.9,32.1,28.0,23.8,96,84,74,29.67,29.44,5,2,10,0.00
2013-3-5,41.9,35.9,33.1,36.8,33.0,31.4,95,89,77,30.13,29.68,4,2,5,0.14
2013-3-6,39.0,34.0,31.6,31.5,28.7,24.4,92,81,66,30.29,30.13,3,1,4,0.00
2013-3-7,35.7,32.0,30.2,25.1,23.8,22.5,78,72,63,30.25,30.13,5,3,8,0.00
2013-3-8,45.3,35.2,28.2,24.5,23.1,21.4,78,63,39,30.23,30.10,6,4,11,0.00
2013-3-9,46.6,33.8,23.5,27.3,23.7,19.9,87,68,45,30.36,30.21,3,1,4,0.00
2013-3-10,43.7,30.0,16.4,28.9,23.6,14.2,93,78,52,30.42,30.27,9,2,11,0.00
2013-3-11,46.7,37.7,32.1,36.5,32.5,28.4,92,82,61,30.27,30.11,8,4,10,0.00
2013-3-12,47.5,43.1,38.8,45.6,41.5,36.7,97,94,88,30.11,29.71,7,2,9,0.65
2013-3-13,47.7,41.8,33.8,46.9,36.2,23.6,97,81,61,29.71,29.62,7,1,7,0.12
2013-3-14,40.3,30.2,20.1,27.5,20.4,8.4,93,68,45,29.72,29.57,6,2,10,0.00
2013-3-15,33.2,23.6,14.6,21.7,9.3,4.4,84,55,33,29.75,29.56,5,2,10,0.00
2013-3-16,32.7,25.1,17.2,21.8,12.9,7.5,91,62,35,29.87,29.59,5,2,9,0.00
2013-3-17,27.2,17.6,10.0,10.1,4.4,-6.2,87,60,28,30.27,29.87,7,2,11,0.00
2013-3-18,34.2,21.1,7.4,15.1,0.9,-5.5,74,43,22,30.42,30.26,5,1,6,0.00
2013-3-19,25.9,23.3,20.6,22.7,17.2,8.4,93,79,48,30.27,29.70,2,0,4,0.00
2013-3-20,33.8,25.0,16.8,30.5,21.4,14.6,93,86,74,29.70,29.54,5,1,10,0.02
2013-3-21,39.0,23.8,11.1,24.6,17.4,9.0,95,79,35,29.72,29.59,7,2,11,0.00
2013-3-22,38.5,23.5,11.9,22.4,15.5,9.1,90,73,37,29.61,29.53,5,1,9,0.00
2013-3-23,41.3,32.7,24.1,24.5,20.0,14.8,75,60,43,29.59,29.41,7,3,16,0.00
2013-3-24,43.2,36.0,26.1,26.8,24.6,23.0,88,64,47,29.75,29.57,5,2,13,0.00
2013-3-25,44.5,35.2,24.2,30.2,26.5,21.4,91,72,51,29.76,29.59,3,1,4,0.00
2013-3-26,46.9,37.2,29.2,29.6,26.1,22.5,83,65,46,29.68,29.55,5,2,8,0.00
2013-3-27,40.9,36.8,31.2,37.8,32.7,27.2,95,85,74,29.85,29.66,4,1,6,0.22
2013-3-28,52.0,40.7,31.8,37.8,32.7,28.6,96,75,44,29.92,29.85,4,1,6,0.01
2013-3-29,51.8,42.5,29.3,36.7,32.1,27.6,96,68,48,29.96,29.90,4,1,5,0.00
2013-3-30,53.2,40.5,25.4,30.9,21.1,12.4,95,53,21,30.05,29.94,4,1,8,0.00
2013-3-31,53.7,36.4,19.2,27.1,21.0,16.8,92,58,29,30.09,29.83,7,2,9,0.00
2013-4-1,48.4,37.5,30.1,41.4,34.4,21.2,96,89,69,29.82,29.44,7,2,9,0.61
2013-4-2,34.5,28.7,23.5,20.8,13.4,8.6,69,53,37,29.75,29.62,9,4,18,0.00
2013-4-3,36.2,30.3,25.2,19.0,15.1,10.9,74,54,42,29.96,29.72,7,4,15,0.00
2013-4-4,50.3,37.2,27.3,23.3,13.0,6.1,82,39,20,30.14,29.91,9,3,16,0.00
2013-4-5,56.5,40.0,25.5,30.3,25.4,19.8,92,60,28,29.91,29.63,7,3,13,0.00
2013-4-6,37.2,30.3,23.1,19.4,8.2,2.3,62,41,24,30.31,29.78,7,3,12,0.00
2013-4-7,43.1,31.8,19.1,36.5,21.5,10.7,85,67,47,30.32,29.88,11,4,15,0.00
2013-4-8,54.7,44.7,30.3,36.8,33.6,26.3,87,67,46,30.12,29.85,12,3,13,0.00
2013-4-9,41.6,36.8,29.9,40.3,35.2,26.5,96,94,86,30.11,29.90,2,0,3,0.21
2013-4-10,57.2,44.3,35.4,45.9,37.6,34.2,97,80,49,29.96,29.86,4,1,6,0.08
2013-4-11,48.4,39.4,31.8,35.7,21.5,13.5,93,53,27,30.18,29.85,5,2,9,0.00
2013-4-12,38.1,31.9,26.5,30.4,22.2,13.9,94,69,49,30.26,29.92,2,0,2,0.03
2013-4-13,43.9,36.2,31.0,36.7,33.1,29.5,96,89,74,29.92,29.79,1,0,2,0.27
2013-4-14,48.2,39.8,31.6,40.5,35.3,29.0,97,85,58,30.14,29.87,4,1,7,0.10
2013-4-15,57.2,41.5,25.6,40.3,32.5,24.4,96,73,40,30.35,30.14,8,1,8,0.00
2013-4-16,55.3,44.6,37.8,45.3,38.1,34.7,91,79,55,30.40,29.87,15,8,23,0.00
2013-4-17,58.3,47.9,30.9,46.2,30.2,21.9,90,53,26,30.34,29.89,6,2,15,0.00
2013-4-18,49.1,39.1,25.7,35.2,25.9,21.8,89,62,35,30.47,30.08,9,3,10,0.00
2013-4-19,71.2,57.7,47.3,58.8,50.8,33.0,94,78,56,30.08,29.57,15,10,25,0.00
2013-4-20,60.7,51.0,40.0,58.6,39.1,24.4,95,68,35,30.11,29.52,13,4,17,0.65
2013-4-21,49.3,38.6,26.1,25.2,19.9,12.2,73,49,24,30.69,30.12,5,2,7,0.00
2013-4-22,54.9,37.8,20.7,28.5,21.2,14.1,90,57,21,30.81,30.66,5,1,8,0.00
2013-4-23,52.5,37.4,21.8,39.3,31.7,20.1,95,81,53,30.67,30.22,5,1,8,0.00
2013-4-24,56.0,47.0,41.7,50.8,44.5,39.0,97,91,81,30.22,29.74,4,1,5,0.03
2013-4-25,60.1,49.8,36.3,46.5,36.8,27.0,96,65,33,30.28,29.73,6,2,10,0.12
2013-4-26,62.4,44.4,26.3,33.7,28.3,22.7,93,59,24,30.43,30.28,2,1,5,0.00
2013-4-27,64.3,45.8,27.0,37.0,31.4,25.2,95,63,27,30.42,30.25,7,1,9,0.00
2013-4-28,69.8,50.1,27.9,41.2,32.8,26.4,96,59,26,30.32,30.17,7,2,11,0.00
2013-4-29,69.8,50.9,29.8,44.3,35.4,27.3,92,61,23,30.26,30.16,9,2,11,0.00
2013-4-30,73.3,52.5,30.6,44.5,37.2,29.1,97,63,28,30.34,30.23,9,2,12,0.00
2013-5-1,79.6,55.0,29.9,41.5,34.5,28.1,95,54,17,30.42,30.34,8,2,11,0.00
2013-5-2,71.2,53.0,34.1,47.2,36.6,29.0,91,57,30,30.52,30.39,3,1,4,0.00
2013-5-3,70.7,52.0,34.9,46.7,40.1,31.9,90,67,37,30.56,30.34,3,1,3,0.00
2013-5-4,72.4,50.9,31.4,42.8,35.6,21.0,97,65,15,30.39,30.23,10,2,13,0.00
2013-5-5,72.7,59.7,42.1,40.4,38.2,35.4,85,48,26,30.29,30.16,11,6,14,0.00
2013-5-6,71.5,53.1,35.5,44.0,39.4,31.6,96,66,23,30.24,30.09,10,5,15,0.00
2013-5-7,78.7,58.7,44.0,54.1,46.6,39.1,96,71,27,30.14,30.02,11,5,16,0.00
2013-5-8,78.8,62.6,51.0,58.6,54.1,49.4,97,77,41,30.22,30.12,11,4,20,0.00
2013-5-9,65.3,57.8,54.0,60.1,55.8,52.6,96,93,81,30.11,29.87,7,0,8,0.11
2013-5-10,74.9,61.1,53.1,63.1,57.3,52.3,98,88,59,29.93,29.86,3,1,6,0.10
2013-5-11,61.8,56.8,52.3,60.0,55.6,50.8,97,96,93,29.91,29.64,8,2,12,0.60
2013-5-12,59.2,54.9,44.3,58.1,53.5,43.0,98,95,88,29.68,29.51,7,1,8,0.23
2013-5-13,56.8,46.1,33.5,43.0,33.0,28.2,98,64,35,29.98,29.68,8,2,11,0.00
2013-5-14,54.4,41.3,27.8,34.2,30.4,26.3,96,68,42,30.01,29.92,4,1,8,0.00
2013-5-15,64.9,45.5,28.0,47.3,33.2,26.5,97,70,26,29.98,29.63,12,3,18,0.20
2013-5-16,73.1,57.9,48.3,57.7,46.8,39.9,97,71,32,29.76,29.52,8,3,12,0.00
2013-5-17,61.1,50.3,37.5,44.1,39.1,35.4,93,68,41,30.18,29.76,6,2,9,0.00
2013-5-18,66.2,48.9,35.6,48.5,40.8,34.3,96,77,45,30.31,30.18,4,1,6,0.16
2013-5-19,66.9,49.7,34.1,52.0,44.0,33.1,97,82,54,30.37,30.22,6,1,8,0.01
2013-5-20,72.6,56.1,48.4,62.1,53.2,46.5,97,91,66,30.21,29.89,3,1,4,0.90
2013-5-21,56.2,53.8,49.8,53.9,52.5,48.7,97,95,90,30.04,29.94,1,0,3,0.76
2013-5-22,56.2,50.4,47.9,53.0,49.1,47.1,97,95,88,30.02,29.92,2,0,3,0.68
2013-5-23,66.0,56.6,47.8,62.1,54.8,47.0,97,94,84,29.92,29.75,8,3,12,0.09
2013-5-24,68.4,58.9,47.4,65.0,57.6,46.6,97,95,82,29.86,29.61,9,4,15,1.44
2013-5-25,47.4,45.9,43.1,46.6,44.9,42.3,97,97,95,29.85,29.71,5,3,9,0.64
2013-5-26,52.8,46.5,43.1,48.3,43.7,39.7,97,90,72,29.92,29.65,5,2,10,0.36
2013-5-27,65.4,52.7,38.9,41.7,36.9,32.4,92,60,30,30.10,29.91,6,3,9,0.00
2013-5-28,75.3,52.1,32.4,46.8,38.7,31.4,98,68,27,30.21,30.12,10,2,7,0.00
2013-5-29,56.7,51.1,41.0,54.8,49.0,39.5,97,93,81,30.20,29.97,3,0,3,0.13
2013-5-30,84.0,66.1,53.0,68.0,58.4,52.2,98,80,43,30.00,29.93,4,2,8,0.00
2013-5-31,91.4,70.2,51.8,77.6,64.3,51.0,98,84,46,30.01,29.82,6,2,13,0.51
2013-6-1,92.5,75.4,58.7,72.3,65.9,57.9,99,77,38,29.88,29.74,9,2,10,0.07
2013-6-2,89.3,73.8,63.3,73.2,67.1,62.1,97,82,51,29.76,29.58,13,4,23,0.09
2013-6-3,78.2,68.2,55.8,67.0,63.4,52.9,97,86,61,29.75,29.62,8,3,11,0.55
2013-6-4,65.8,55.6,44.7,52.3,44.8,40.3,98,70,41,29.99,29.74,5,2,8,0.01
2013-6-5,74.0,59.4,45.6,44.0,39.5,32.5,89,52,22,30.13,30.00,5,2,8,0.00
2013-6-6,69.3,55.9,39.3,52.1,45.3,37.7,96,71,38,30.20,30.12,5,1,6,0.00
2013-6-7,64.0,56.7,51.3,53.8,49.4,44.3,96,79,51,30.14,29.98,4,0,7,0.28
2013-6-8,63.7,56.9,52.1,59.9,54.6,51.0,97,92,80,29.98,29.68,4,0,6,1.17
2013-6-9,74.8,61.4,52.5,61.6,55.3,51.3,97,82,53,30.13,29.95,5,1,9,0.02
2013-6-10,74.3,61.2,46.4,59.2,53.0,45.3,98,77,47,30.19,30.01,6,2,8,0.00
2013-6-11,57.7,55.7,53.2,56.3,54.1,52.4,97,94,88,30.01,29.53,4,1,4,0.73
2013-6-12,58.2,55.9,53.4,56.7,54.5,52.6,98,95,86,29.73,29.49,4,2,6,0.27
2013-6-13,73.3,62.6,52.1,55.4,51.9,44.5,98,71,36,29.76,29.68,6,1,7,0.00
2013-6-14,79.3,61.4,50.2,59.5,54.0,49.1,97,80,39,29.71,29.60,2,0,3,0.03
2013-6-15,76.4,62.8,46.6,52.5,45.2,41.7,96,57,31,29.83,29.69,4,2,9,0.01
2013-6-16,76.2,60.9,45.0,58.5,53.1,43.1,96,78,46,29.85,29.68,10,2,10,0.05
2013-6-17,78.0,64.8,53.7,62.8,57.7,52.9,98,80,50,29.82,29.67,8,2,11,0.02
2013-6-18,71.5,59.2,46.7,54.1,49.8,45.6,97,74,45,29.95,29.81,4,1,7,0.00
2013-6-19,74.8,59.7,45.3,50.0,45.6,40.5,96,65,30,30.10,29.91,3,1,5,0.00
2013-6-20,77.2,56.7,41.3,53.9,46.5,40.2,97,74,33,30.23,30.11,7,2,11,0.00
2013-6-21,84.0,61.0,48.4,58.2,51.3,46.5,94,75,32,30.19,30.11,6,1,11,0.00
2013-6-22,75.1,65.9,54.0,65.8,60.5,51.9,95,83,64,30.18,30.07,2,0,1,0.02
2013-6-23,79.0,66.2,58.1,71.6,63.9,57.0,98,92,76,30.10,29.90,5,1,7,0.15
2013-6-24,87.8,73.2,64.8,72.2,68.1,64.0,98,85,55,29.90,29.75,4,1,6,0.00
2013-6-25,89.7,71.2,58.8,72.9,65.4,57.4,97,83,53,29.79,29.66,9,2,11,0.17
2013-6-26,72.7,66.7,61.2,69.7,64.8,60.3,98,94,83,29.84,29.66,3,0,3,0.16
2013-6-27,68.2,61.8,59.0,64.5,60.1,57.9,98,94,86,29.86,29.81,5,1,9,0.02
2013-6-28,62.5,59.8,56.3,61.9,59.1,55.5,98,98,97,29.85,29.54,1,0,3,0.81
2013-6-29,66.2,64.3,62.5,65.9,63.9,61.9,99,99,98,29.57,29.52,2,0,2,0.03
2013-6-30,82.0,69.3,63.2,73.2,66.5,62.6,99,92,69,29.88,29.65,6,2,10,0.04
2013-7-1,76.9,71.4,66.4,72.8,69.1,65.6,98,93,82,30.09,29.88,2,0,2,0.17
2013-7-2,67.0,58.6,55.6,66.1,57.5,54.7,98,96,91,30.22,30.09,3,1,3,0.96
2013-7-3,84.5,69.4,56.7,74.6,65.3,56.1,98,88,67,30.17,30.05,6,2,7,0.00
2013-7-4,90.9,77.0,64.6,75.6,70.2,64.0,99,82,52,30.12,29.99,7,2,9,0.16
2013-7-5,92.3,79.1,67.6,74.5,70.8,67.0,98,78,50,30.05,29.94,6,2,14,0.00
2013-7-6,87.2,77.3,69.9,71.7,68.5,62.7,94,76,52,29.97,29.86,4,2,9,0.00
2013-7-7,89.3,77.7,63.8,70.3,65.9,60.9,91,68,49,29.92,29.84,7,2,9,0.00
2013-7-8,76.4,66.6,59.2,68.0,62.7,57.4,96,88,70,30.05,29.87,2,0,3,1.19
2013-7-9,79.9,67.9,57.6,68.7,63.0,56.8,98,86,60,30.10,30.04,4,1,7,0.00
2013-7-10,73.2,66.7,62.6,67.6,64.1,60.6,97,92,81,30.06,29.75,6,1,9,0.21
2013-7-11,79.7,70.2,64.7,72.7,67.4,58.0,98,91,75,29.95,29.71,3,1,5,0.29
2013-7-12,82.3,66.4,54.9,61.3,56.9,52.6,97,74,38,30.18,29.95,2,0,4,0.00
2013-7-13,85.7,68.7,49.4,65.5,57.7,48.6,98,72,38,30.29,30.19,5,2,8,0.00
2013-7-14,90.8,74.8,59.2,74.4,66.2,57.4,95,77,48,30.25,30.12,3,1,5,0.00
2013-7-15,93.8,75.4,59.2,71.3,65.3,58.3,98,75,43,30.15,30.01,4,1,5,0.00
2013-7-16,92.2,76.0,64.9,72.1,67.0,62.8,95,76,44,30.12,30.05,3,0,3,0.00
2013-7-17,88.6,75.5,61.5,75.4,69.0,60.5,98,82,57,30.13,29.88,11,4,17,0.14
2013-7-18,86.0,74.5,64.9,72.8,67.7,63.5,98,81,57,29.98,29.89,12,2,18,0.06
2013-7-19,91.7,77.7,67.8,79.1,71.9,66.6,98,84,62,29.91,29.54,11,4,18,0.09
2013-7-20,87.5,74.6,67.1,72.6,68.0,55.8,97,81,56,29.76,29.54,6,3,10,0.02
2013-7-21,80.0,67.4,56.7,65.5,57.8,53.1,95,73,45,30.00,29.76,8,2,11,0.00
2013-7-22,75.9,63.3,51.0,65.7,56.8,49.9,98,81,53,30.04,29.92,6,1,7,0.00
2013-7-23,69.2,62.1,56.2,67.5,61.1,54.9,98,96,93,29.91,29.51,1,0,2,1.39
2013-7-24,80.5,67.0,52.6,71.5,61.9,49.4,99,85,62,29.96,29.52,5,2,11,0.01
2013-7-25,74.2,61.5,46.8,62.8,54.2,45.4,96,79,53,30.10,29.97,2,0,3,0.00
2013-7-26,66.6,63.6,60.3,64.6,61.5,58.9,96,93,87,30.09,29.88,3,1,5,0.15
2013-7-27,86.3,71.3,62.9,68.0,63.0,59.9,94,77,51,30.00,29.87,4,1,5,0.00
2013-7-28,79.8,68.1,56.5,69.2,63.5,55.7,98,86,64,30.02,29.98,4,1,9,0.02
2013-7-29,75.2,67.1,61.1,68.4,64.8,60.2,98,93,79,30.03,29.96,7,0,10,0.89
2013-7-30,79.8,66.4,56.1,64.7,59.3,54.7,98,81,46,30.03,29.96,3,0,7,0.00
2013-7-31,83.2,68.1,51.8,65.4,58.1,50.6,98,73,42,30.07,29.97,4,1,8,0.00
2013-8-1,81.0,67.6,53.0,65.7,59.7,52.2,98,78,51,30.01,29.86,8,2,9,0.00
2013-8-2,76.6,63.9,56.3,68.8,61.9,55.5,98,94,73,29.85,29.70,8,2,11,1.33
2013-8-3,77.3,64.3,55.5,64.3,59.8,54.9,98,87,57,29.79,29.67,5,1,6,0.13
2013-8-4,78.5,62.4,55.4,61.4,57.1,52.2,97,84,49,29.79,29.69,3,1,5,0.02
2013-8-5,71.2,60.9,50.2,55.2,51.1,44.5,96,72,53,29.98,29.77,4,2,8,0.00
2013-8-6,78.9,62.3,44.6,60.8,52.4,43.3,97,73,45,30.12,29.98,7,2,11,0.00
2013-8-7,79.6,60.1,47.3,59.4,52.7,46.4,98,80,42,30.17,30.09,7,1,10,0.00
2013-8-8,67.5,62.6,57.2,65.8,61.1,55.8,97,95,90,30.09,29.99,8,2,10,0.27
2013-8-9,71.7,67.2,65.3,70.5,66.4,64.4,98,97,95,30.00,29.68,8,2,11,2.80
2013-8-10,77.5,67.4,53.1,66.1,57.5,50.7,99,74,43,29.94,29.68,5,2,8,0.00
2013-8-11,78.3,63.4,48.0,59.8,53.5,46.1,97,73,44,30.00,29.91,5,1,8,0.00
2013-8-12,80.2,64.9,53.8,65.4,56.8,52.7,97,78,41,29.96,29.84,5,1,9,0.00
2013-8-13,75.5,63.1,51.4,67.0,60.6,50.6,98,92,70,29.88,29.67,7,1,4,0.30
2013-8-14,76.0,64.8,54.5,65.3,57.2,47.6,98,78,50,29.82,29.57,4,1,6,0.00
2013-8-15,76.0,59.4,48.5,58.2,51.3,46.6,95,77,44,30.04,29.82,6,2,11,0.00
2013-8-16,78.8,62.5,46.5,60.3,54.3,45.7,98,78,43,30.16,30.03,6,1,8,0.02
2013-8-17,56.7,55.4,54.2,55.6,54.3,53.1,96,96,96,30.17,30.16,0,0,0,0.00
2013-8-27,75.7,68.9,65.5,68.7,66.0,63.7,94,90,79,29.86,29.82,3,1,4,0.00
2013-8-28,85.5,69.6,60.7,72.0,65.4,59.8,98,88,55,29.98,29.82,6,1,6,1.22
2013-8-29,64.9,60.5,51.0,63.5,58.5,50.2,98,93,80,30.11,29.98,2,0,4,0.03
2013-8-30,82.1,65.3,49.5,70.3,60.8,48.7,98,87,62,30.00,29.73,4,1,6,0.39
2013-8-31,81.3,69.8,62.5,72.2,66.7,61.9,98,91,68,29.80,29.73,2,0,5,0.71
2013-9-1,83.6,72.3,67.0,72.0,68.0,66.4,99,88,59,29.91,29.73,2,0,4,0.22
2013-9-2,67.8,65.5,62.0,66.9,64.6,61.1,98,97,95,29.91,29.73,1,0,2,1.87
2013-9-3,77.2,68.3,63.3,71.1,65.9,62.8,99,92,74,29.74,29.63,5,1,8,0.02
2013-9-4,79.2,66.6,56.1,65.2,58.0,53.9,99,77,42,29.85,29.68,6,1,11,0.00
2013-9-5,67.6,57.0,42.0,58.1,47.1,38.7,96,73,37,30.10,29.82,3,1,5,0.04
2013-9-6,68.5,52.1,37.4,51.6,43.3,36.4,98,76,43,30.18,29.99,6,2,16,0.00
2013-9-7,71.1,58.6,46.8,60.0,53.3,45.6,97,84,58,30.00,29.74,7,2,10,0.01
2013-9-8,62.3,56.4,42.9,57.0,48.6,37.3,96,77,47,30.01,29.65,5,2,12,0.42
2013-9-9,67.7,51.8,36.0,50.5,43.6,34.8,97,76,47,30.15,30.01,8,3,12,0.00
2013-9-10,66.5,57.3,43.5,61.1,54.4,42.5,98,90,78,30.07,30.00,5,1,6,0.00
2013-9-11,89.4,72.8,61.6,76.5,68.1,60.2,98,86,62,30.02,29.82,9,3,12,0.02
2013-9-12,74.9,69.3,65.9,71.4,67.8,65.0,98,95,86,29.95,29.60,8,2,10,0.49
2013-9-13,67.0,64.1,58.2,66.0,63.3,57.4,98,97,95,29.68,29.56,3,0,4,0.98
2013-9-14,70.2,58.8,48.1,58.5,54.6,46.7,98,87,63,29.99,29.67,3,1,6,0.01
2013-9-15,70.8,55.0,42.1,56.0,48.9,41.3,98,82,50,30.08,29.96,6,1,12,0.01
2013-9-16,60.3,52.9,43.3,56.7,48.1,36.6,97,84,61,30.23,29.92,5,1,5,0.09
2013-9-17,66.7,49.9,36.6,48.2,40.7,33.7,94,73,43,30.37,30.23,3,1,5,0.00
2013-9-18,73.7,52.8,35.6,54.0,44.4,34.8,98,78,35,30.26,30.05,4,1,7,0.00
2013-9-19,77.5,55.9,37.7,58.1,48.0,36.9,98,79,40,30.09,29.96,4,1,6,0.00
2013-9-20,78.1,58.2,42.8,61.1,51.4,42.0,98,81,50,30.08,29.98,4,1,7,0.00
2013-9-21,69.0,58.6,44.9,61.5,54.2,44.1,98,87,60,30.01,29.73,12,4,17,0.01
2013-9-22,71.8,63.5,52.3,65.3,59.5,45.2,96,87,74,29.72,29.53,10,4,12,1.01
2013-9-23,54.6,49.5,43.5,45.6,41.2,38.2,84,73,64,29.88,29.70,5,2,7,0.00
2013-9-24,52.7,48.5,45.5,45.5,42.1,39.7,92,78,69,29.87,29.79,5,1,9,0.10
2013-9-25,61.5,52.9,47.2,48.8,45.8,43.1,88,77,62,29.95,29.82,3,1,7,0.00
2013-9-26,61.8,54.2,44.9,51.6,48.2,43.5,96,81,66,30.11,29.95,4,1,5,0.00
2013-9-27,72.2,58.8,46.7,55.6,51.5,45.6,96,79,50,30.23,30.11,3,1,4,0.00
2013-9-28,76.2,55.0,39.8,56.1,47.6,39.0,98,80,35,30.32,30.23,2,0,3,0.00
2013-9-29,71.2,52.2,39.8,54.0,45.4,38.2,98,81,41,30.24,30.09,7,1,8,0.01
2013-9-30,69.6,50.8,39.7,53.9,46.2,38.5,97,86,44,30.11,29.96,2,0,3,0.00
2013-10-1,75.2,53.0,35.3,56.7,46.4,34.5,98,82,45,29.96,29.79,3,0,3,0.00
2013-10-2,78.1,59.1,43.4,61.4,50.6,42.5,98,77,42,29.85,29.69,5,1,9,0.01
2013-10-3,74.2,55.2,40.1,52.0,44.7,39.1,98,73,32,30.03,29.85,6,1,7,0.00
2013-10-4,70.3,54.1,40.8,52.5,45.8,39.5,96,77,41,30.08,29.99,3,0,5,0.00
2013-10-5,62.7,50.8,41.8,50.0,43.9,39.6,95,79,49,30.14,30.05,4,1,5,0.00
2013-10-6,59.6,48.4,36.4,45.7,40.0,34.6,94,75,43,30.29,30.14,4,1,6,0.05
2013-10-7,67.9,56.5,46.5,65.8,55.4,45.1,98,96,92,30.20,29.73,15,4,21,0.62
2013-10-8,62.7,51.9,35.6,61.5,42.9,34.3,96,73,47,30.37,29.76,4,1,13,0.03
2013-10-9,63.1,44.9,30.7,45.3,38.2,29.7,98,81,44,30.47,30.34,4,0,8,0.00
2013-10-10,68.0,45.7,31.7,51.8,41.0,30.7,97,86,47,30.33,30.19,4,0,5,0.00
2013-10-11,74.8,48.4,33.5,56.6,43.8,32.5,98,87,47,30.17,30.10,0,0,0,0.01
2013-10-12,57.3,52.1,45.8,51.2,49.3,44.7,97,90,78,30.39,30.17,0,0,0,0.00
2013-10-13,58.8,53.3,50.1,51.0,49.1,47.7,94,86,74,30.44,30.35,4,1,6,0.00
2013-10-14,63.8,54.3,47.6,52.5,48.6,45.7,93,82,64,30.35,30.20,6,2,9,0.00
2013-10-15,67.1,54.0,40.1,54.6,48.7,39.1,98,84,57,30.27,30.16,3,0,3,0.01
2013-10-16,63.4,55.3,49.6,53.3,50.8,46.7,95,86,56,30.19,29.85,5,1,6,0.00
2013-10-17,69.3,54.6,42.0,56.8,50.2,40.7,96,86,53,29.86,29.71,5,1,7,0.00
2013-10-18,63.5,52.2,41.2,56.0,47.3,40.0,97,85,59,29.77,29.57,3,0,10,0.27
2013-10-19,63.9,51.1,38.6,46.1,42.4,36.2,93,74,47,29.88,29.72,7,2,10,0.00
2013-10-20,60.9,51.2,39.7,49.5,38.6,28.3,97,67,30,29.89,29.62,5,2,9,0.02
2013-10-21,62.1,47.0,34.2,43.1,36.3,31.2,91,69,40,30.03,29.90,5,1,10,0.00
2013-10-22,58.7,48.9,35.9,52.6,45.6,34.6,96,89,71,29.94,29.65,12,3,15,0.03
2013-10-23,53.1,40.2,28.8,38.9,33.6,27.8,97,80,48,29.74,29.56,4,1,5,0.01
2013-10-24,47.3,40.2,28.5,34.2,28.8,25.2,94,66,45,29.74,29.57,7,2,16,0.00
2013-10-25,49.5,40.9,29.1,33.7,29.6,25.2,86,65,47,30.03,29.75,4,1,8,0.00
2013-10-26,46.6,37.9,26.2,36.5,30.9,23.7,92,76,60,30.06,29.81,11,2,11,0.00
2013-10-27,54.5,43.4,35.1,40.5,35.1,28.6,90,74,52,29.94,29.73,7,2,9,0.00
2013-10-28,49.6,38.0,28.4,38.0,29.6,21.8,88,72,54,30.32,29.93,8,2,14,0.01
2013-10-29,46.3,30.2,21.2,28.0,21.5,18.7,93,73,33,30.43,30.32,4,1,6,0.00
2013-10-30,47.2,31.0,19.4,27.5,22.5,17.6,93,74,38,30.33,30.12,5,0,7,0.00
2013-10-31,41.4,27.2,21.0,34.7,24.5,19.3,94,90,77,30.23,30.09,1,0,2,0.00
2013-11-1,64.1,57.8,43.3,60.3,55.9,42.5,98,93,78,29.72,29.22,14,9,18,0.55
2013-11-2,63.5,53.6,39.4,48.6,43.4,34.3,86,69,48,29.79,29.53,4,2,0,0.00
2013-11-3,41.5,35.4,24.1,35.6,23.1,16.8,88,62,38,30.40,29.79,4,2,0,0.01
2013-11-4,34.4,26.3,20.1,20.7,17.9,16.7,89,70,54,30.69,30.40,3,1,3,0.00
2013-11-5,46.1,30.2,17.2,31.4,23.7,15.3,94,78,54,30.71,30.47,8,2,3,0.00
2013-11-6,53.2,36.2,26.6,43.1,32.1,25.4,96,86,64,30.47,30.14,10,2,15,0.00
2013-11-7,53.7,48.7,37.6,52.6,45.3,31.0,96,88,74,29.89,29.59,10,4,4,0.20
2013-11-8,44.5,37.4,32.2,30.3,25.8,23.7,79,63,47,29.91,29.72,5,1,12,0.00
2013-11-9,42.6,34.8,25.3,24.5,22.2,19.5,87,61,41,30.08,29.91,5,1,8,0.00
2013-11-10,37.2,32.1,27.7,35.4,30.0,24.0,96,92,85,30.05,29.68,2,0,2,0.06
2013-11-11,42.3,36.1,28.6,33.6,30.1,27.4,97,80,59,29.95,29.69,5,1,8,0.01
2013-11-12,39.0,31.8,24.2,31.4,20.6,14.1,79,63,49,30.06,29.76,4,2,9,0.00
2013-11-13,32.9,25.4,18.5,16.3,13.5,11.5,82,61,43,30.18,30.03,7,2,9,0.00
2013-11-14,43.5,34.1,25.4,29.1,24.4,15.9,87,68,52,30.04,29.93,7,2,9,0.00
2013-11-15,48.5,34.9,24.7,34.0,27.9,23.0,94,77,52,30.11,30.04,4,1,6,0.00
2013-11-16,52.3,30.6,23.9,34.9,26.5,22.2,94,86,44,30.33,30.16,2,0,2,0.00
2013-11-17,42.9,39.2,23.8,41.8,37.8,22.1,97,94,92,30.34,29.93,1,0,2,0.11
2013-11-18,61.6,52.1,42.3,56.5,48.0,32.2,98,87,49,29.92,29.40,12,2,11,0.34
2013-11-19,35.9,33.6,31.4,20.8,18.6,16.2,58,54,48,30.15,29.75,6,3,18,0.00
2013-11-20,37.6,29.9,22.8,17.5,12.7,9.1,74,50,31,30.59,30.15,5,2,10,0.00
2013-11-21,45.3,26.5,18.0,23.1,17.9,14.6,87,72,32,30.61,30.30,4,1,8,0.00
2013-11-22,38.4,29.8,20.8,31.1,24.9,18.7,93,83,64,30.30,29.73,4,0,5,0.00
2013-11-23,37.8,32.6,24.1,33.4,21.7,15.4,96,66,43,29.74,29.62,7,2,13,0.01
2013-11-24,24.4,20.3,17.4,15.3,5.4,2.8,68,52,44,29.92,29.61,9,4,20,0.00
2013-11-25,28.3,18.5,13.1,8.7,1.8,-1.7,59,48,31,30.26,29.92,6,2,20,0.00
2013-11-26,32.0,26.6,23.5,27.5,20.6,8.2,94,79,50,30.27,30.17,7,2,10,0.00
2013-11-27,56.6,43.0,28.9,55.8,42.1,27.4,98,96,94,30.17,29.14,6,1,10,2.77
2013-11-28,35.6,27.3,16.3,34.0,19.5,6.7,95,73,49,30.33,29.23,6,2,10,0.00
2013-11-29,20.3,16.1,11.1,9.1,8.3,6.3,88,71,57,30.72,30.33,3,0,4,0.00
2013-11-30,26.0,17.1,7.0,16.7,10.0,4.4,90,74,50,30.80,30.40,5,1,9,0.00
2013-12-1,23.1,22.0,21.3,19.3,17.8,16.9,85,84,83,30.40,30.38,0,0,0,0.00
2013-12-2,32.5,31.1,29.1,31.7,30.1,28.1,97,96,95,30.10,29.92,1,0,0,0.00
2013-12-3,40.8,34.6,31.6,38.9,33.0,29.1,97,94,85,29.92,29.83,4,0,5,0.39
2013-12-4,41.0,34.0,21.7,29.4,27.2,20.2,94,77,62,30.18,29.83,4,1,10,0.06
2013-12-5,32.2,26.6,17.4,31.4,25.1,15.5,97,94,92,30.26,29.88,1,0,1,0.01
2013-12-6,39.5,35.2,32.3,37.9,32.3,22.7,97,90,62,30.06,29.83,2,0,5,0.27
2013-12-7,34.4,29.7,21.5,24.9,15.4,8.6,74,55,45,30.37,30.03,4,1,6,0.00
2013-12-8,25.6,18.6,11.3,11.5,8.3,6.2,87,65,44,30.57,30.35,3,0,6,0.00
2013-12-9,20.9,18.5,14.8,17.5,13.2,9.4,91,80,64,30.55,29.82,1,0,3,0.00
2013-12-10,29.6,20.6,11.1,25.9,15.3,7.2,93,81,60,29.85,29.70,3,0,4,0.00
2013-12-11,29.4,17.3,0.8,17.8,9.1,-2.2,91,71,44,30.07,29.85,8,2,17,0.00
2013-12-12,14.5,6.5,-2.2,7.0,-2.4,-7.0,86,68,40,30.23,29.96,4,1,5,0.00
2013-12-13,20.2,5.3,-8.1,8.1,-5.0,-11.9,89,65,36,30.38,29.84,5,2,17,0.00
2013-12-14,12.2,2.4,-10.1,-0.6,-8.5,-14.6,81,61,37,30.61,30.37,4,0,5,0.00
2013-12-15,16.0,8.7,4.5,13.7,5.6,1.2,91,87,79,30.42,29.46,5,2,9,0.00
2013-12-16,19.4,8.6,-9.7,10.9,-0.1,-14.2,92,69,45,30.19,29.62,6,2,12,0.00
2013-12-17,12.5,-2.5,-22.9,4.4,-9.4,-27.8,86,73,49,30.32,30.09,2,0,12,0.00
2013-12-18,24.9,15.0,0.7,21.5,11.9,-2.5,91,87,81,30.08,29.83,2,1,7,0.00
2013-12-19,28.1,21.3,5.5,24.3,18.5,3.0,94,89,83,30.05,29.88,3,1,7,0.00
2013-12-20,29.4,26.3,22.4,27.9,24.5,20.7,94,93,91,30.11,29.91,2,0,7,0.00
2013-12-21,29.1,23.9,20.0,27.8,22.1,17.8,95,93,91,29.97,29.83,0,0,7,0.00
2013-12-22,29.3,24.6,22.9,28.0,23.0,21.0,95,94,92,30.08,29.86,1,0,2,0.00
2013-12-23,29.5,27.1,23.4,28.5,25.9,21.9,96,95,94,30.11,29.98,0,0,1,0.00
2013-12-24,29.0,19.4,5.6,28.0,16.8,2.8,96,90,83,30.16,30.03,1,0,1,0.00
2013-12-25,18.5,8.1,-2.8,12.8,3.9,-5.9,89,83,76,30.54,30.15,3,0,9,0.00
2013-12-26,17.4,9.2,-1.3,15.7,6.6,-4.5,93,89,86,30.52,30.08,0,0,0,0.00
2013-12-27,30.3,10.8,-1.7,26.0,8.0,-4.9,93,88,83,30.17,30.09,2,0,3,0.00
2013-12-28,30.9,22.3,7.7,29.7,20.4,5.1,96,92,87,30.14,29.89,4,0,4,0.00
2013-12-29,32.0,25.4,16.5,30.7,23.8,14.6,96,94,91,30.01,29.59,2,0,5,0.00
2013-12-30,28.1,13.6,-5.0,26.0,10.7,-8.6,96,88,80,30.18,29.54,4,1,8,0.00
2013-12-31,8.7,-3.5,-14.5,3.5,-7.4,-18.4,87,83,75,30.17,30.03,3,0,6,0.00
2014-1-1,16.2,-5.9,-27.1,9.5,-10.9,-31.7,88,79,68,30.43,30.09,8,1,9,0.00
2014-1-2,-5.3,-8.2,-12.4,-10.8,-12.8,-16.3,85,80,76,30.50,30.07,3,2,9,0.00